Pagina principale
METAR-TAF:

METAR-TAF

Aeroporti :

Aigen im Ennstal, Austria

latitudine: 47-32N, longitudine: 014-08E, altezza: 638 m

METAR: mancante

Ora: 14:21 (13:21 UTC)

Previsione

Il bollettino è stato emesso 2 ore e 6 minuti fa, alle 11:15 UTC
Previsione valida dal 09 alle 12 UTC al 09 alle 21 UTC
Vento 3 kt da direzioni variabili
Visibilità 10 km o più
Cielo sereno
Temporaneamente
dal 09 alle 12 UTC al 09 alle 18 UTC
Vento 10 kt da nord-est

TAF: LOXA 091115Z 0912/0921 VRB03KT 9999 SKC TEMPO 0912/0918 04010KT

Osservazioni e previsioni meteorologiche di più di 4000 aeroporti (messaggi METAR e TAF).

Le stazioni disponibili sono rappresentate dai dischi gialli e rossi sulla carta.

Puntare il mouse per vedere il nome della stazione.

Clicca sopra per visualizzare le osservazioni e previsioni meteorologiche.

Per cambiare la mappa : fare clic sui pulsanti verdi con una croce nera per ingrandire, il pulsante verde con un trattino per diminuire, o sulla freccia verde per le mappe adiacenti.


METAR-TAF: